createdAt,value
2022-11-28T00:00:02.635Z,15.55
2022-11-28T00:02:29.200Z,14.20
2022-11-28T00:04:55.685Z,12.50
2022-11-28T00:07:22.168Z,14.10
2022-11-28T00:09:48.843Z,15.93
2022-11-28T00:12:15.238Z,13.43
2022-11-28T00:14:41.851Z,14.35
2022-11-28T00:17:08.407Z,13.00
2022-11-28T00:19:34.842Z,17.08
2022-11-28T00:22:01.507Z,14.27
2022-11-28T00:24:27.919Z,17.40
2022-11-28T00:26:54.372Z,12.93
2022-11-28T00:29:20.907Z,14.43
2022-11-28T00:31:47.377Z,16.00
2022-11-28T00:34:15.206Z,17.33
2022-11-28T00:36:43.887Z,12.48
2022-11-28T00:39:10.310Z,15.70
2022-11-28T00:41:36.771Z,17.00
2022-11-28T00:44:03.247Z,15.20
2022-11-28T00:46:30.172Z,20.02
2022-11-28T00:48:58.026Z,14.02
2022-11-28T00:51:26.752Z,14.40
2022-11-28T00:53:54.305Z,15.02
2022-11-28T00:56:25.490Z,17.05
2022-11-28T00:58:52.259Z,15.52
2022-11-28T01:01:24.443Z,12.95
2022-11-28T01:03:51.737Z,17.15
2022-11-28T01:06:24.099Z,17.45
2022-11-28T01:08:50.573Z,15.63
2022-11-28T01:11:17.117Z,19.60
2022-11-28T01:13:43.487Z,16.08
2022-11-28T01:16:10.718Z,19.02
2022-11-28T01:18:37.624Z,13.50
2022-11-28T01:21:05.358Z,14.88
2022-11-28T01:23:31.788Z,15.50
2022-11-28T01:25:58.191Z,13.75
2022-11-28T01:28:24.633Z,14.98
2022-11-28T01:30:51.051Z,17.23
2022-11-28T01:33:17.443Z,14.07
2022-11-28T01:35:54.063Z,12.55
2022-11-28T01:38:20.420Z,14.00
2022-11-28T01:40:46.968Z,11.40
2022-11-28T01:43:13.375Z,13.65
2022-11-28T01:45:40.204Z,15.25
2022-11-28T01:48:09.054Z,14.45
2022-11-28T01:50:36.175Z,15.65
2022-11-28T01:53:05.194Z,13.32
2022-11-28T01:55:33.978Z,12.50
2022-11-28T01:58:00.838Z,11.52
2022-11-28T02:00:27.706Z,13.63
2022-11-28T02:03:01.574Z,12.75
2022-11-28T02:05:28.053Z,13.93
2022-11-28T02:07:54.454Z,14.32
2022-11-28T02:10:27.196Z,14.32
2022-11-28T02:13:06.910Z,12.43
2022-11-28T02:15:44.232Z,12.57
2022-11-28T02:18:32.183Z,8.93
2022-11-28T02:21:26.090Z,10.48
2022-11-28T02:24:13.707Z,11.88
2022-11-28T02:26:59.955Z,12.25
2022-11-28T02:29:41.247Z,10.70
2022-11-28T02:32:22.832Z,10.48
2022-11-28T02:34:58.196Z,7.07
2022-11-28T02:37:49.594Z,11.02
2022-11-28T02:40:21.881Z,11.05
2022-11-28T02:43:06.426Z,10.18
2022-11-28T02:46:02.683Z,10.77
2022-11-28T02:48:57.874Z,10.02
2022-11-28T02:51:31.880Z,9.93
2022-11-28T02:54:00.223Z,9.70
2022-11-28T02:56:26.787Z,10.40
2022-11-28T02:58:53.323Z,10.18
2022-11-28T03:01:24.279Z,11.38
2022-11-28T03:04:03.297Z,13.75
2022-11-28T03:06:46.796Z,10.45
2022-11-28T03:09:38.488Z,9.65
2022-11-28T03:12:37.703Z,12.50
2022-11-28T03:15:06.596Z,10.15
2022-11-28T03:17:48.052Z,10.52
2022-11-28T03:20:35.156Z,10.20
2022-11-28T03:23:18.867Z,13.07
2022-11-28T03:26:12.600Z,9.90
2022-11-28T03:28:44.952Z,11.50
2022-11-28T03:31:15.268Z,12.65
2022-11-28T03:33:48.551Z,12.30
2022-11-28T03:36:20.028Z,18.00
2022-11-28T03:38:50.711Z,14.10
2022-11-28T03:41:21.832Z,15.25
2022-11-28T03:43:53.937Z,13.35
2022-11-28T03:46:22.444Z,17.80
2022-11-28T03:48:52.354Z,16.17
2022-11-28T03:51:22.227Z,19.70
2022-11-28T03:54:08.515Z,14.60
2022-11-28T03:56:50.450Z,17.25
2022-11-28T03:59:21.574Z,17.13
2022-11-28T04:01:53.921Z,18.52
2022-11-28T04:04:52.430Z,18.60
2022-11-28T04:07:43.096Z,22.05
2022-11-28T04:10:28.155Z,19.92
2022-11-28T04:13:09.774Z,21.15
2022-11-28T04:15:58.702Z,17.98
2022-11-28T04:18:33.696Z,19.02
2022-11-28T04:21:21.487Z,23.63
2022-11-28T04:23:49.266Z,23.45
2022-11-28T04:26:20.478Z,22.92
2022-11-28T04:28:48.466Z,20.48
2022-11-28T04:31:16.900Z,25.75
2022-11-28T04:33:47.984Z,22.48
2022-11-28T04:36:16.212Z,23.05
2022-11-28T04:38:43.447Z,22.42
2022-11-28T04:41:14.143Z,22.80
2022-11-28T04:43:49.831Z,24.80
2022-11-28T04:46:19.917Z,22.85
2022-11-28T04:48:46.340Z,26.15
2022-11-28T04:52:06.367Z,24.95
2022-11-28T04:54:38.327Z,18.45
2022-11-28T04:57:18.250Z,23.35
2022-11-28T04:59:45.287Z,24.48
2022-11-28T05:02:13.654Z,18.63
2022-11-28T05:04:40.477Z,24.77
2022-11-28T05:07:08.248Z,21.10
2022-11-28T05:09:34.939Z,26.02
2022-11-28T05:12:01.523Z,29.38
2022-11-28T05:14:27.936Z,22.45
2022-11-28T05:16:54.398Z,22.02
2022-11-28T05:19:20.861Z,23.00
2022-11-28T05:21:47.303Z,22.48
2022-11-28T05:24:13.774Z,27.10
2022-11-28T05:26:40.206Z,22.30
2022-11-28T05:29:06.800Z,22.98
2022-11-28T05:31:33.704Z,24.25
2022-11-28T05:34:00.219Z,20.35
2022-11-28T05:36:26.651Z,21.65
2022-11-28T05:38:53.041Z,30.05
2022-11-28T05:41:21.765Z,24.15
2022-11-28T05:43:48.387Z,26.23
2022-11-28T05:46:14.960Z,21.23
2022-11-28T05:48:41.393Z,23.55
2022-11-28T05:51:08.181Z,27.38
2022-11-28T05:53:34.837Z,23.50
2022-11-28T05:56:10.447Z,22.33
2022-11-28T05:58:37.054Z,25.27
2022-11-28T06:01:11.362Z,21.35
2022-11-28T06:03:37.851Z,19.30
2022-11-28T06:06:04.725Z,22.55
2022-11-28T06:08:31.099Z,19.98
2022-11-28T06:10:58.246Z,22.58
2022-11-28T06:13:24.679Z,17.83
2022-11-28T06:15:51.086Z,25.77
2022-11-28T06:18:17.464Z,22.77
2022-11-28T06:20:43.867Z,21.50
2022-11-28T06:23:10.273Z,25.90
2022-11-28T06:25:36.647Z,19.88
2022-11-28T06:28:02.993Z,21.95
2022-11-28T06:30:29.346Z,23.20
2022-11-28T06:32:55.734Z,28.38
2022-11-28T06:35:22.193Z,23.63
2022-11-28T06:37:48.583Z,26.33
2022-11-28T06:40:15.076Z,23.35
2022-11-28T06:42:41.583Z,21.70
2022-11-28T06:45:09.165Z,23.48
2022-11-28T06:47:35.566Z,22.63
2022-11-28T06:50:01.906Z,22.80
2022-11-28T06:52:28.306Z,22.80
2022-11-28T06:54:55.052Z,20.58
2022-11-28T06:57:22.055Z,22.65
2022-11-28T06:59:49.210Z,24.17
2022-11-28T07:02:15.626Z,26.65
2022-11-28T07:04:42.080Z,24.65
2022-11-28T07:07:10.683Z,23.70
2022-11-28T07:09:40.335Z,27.55
2022-11-28T07:12:06.996Z,21.95
2022-11-28T07:14:33.677Z,24.90
2022-11-28T07:17:00.268Z,26.60
2022-11-28T07:19:26.784Z,26.30
2022-11-28T07:21:53.152Z,23.42
2022-11-28T07:24:19.572Z,30.65
2022-11-28T07:26:47.440Z,26.58
2022-11-28T07:29:15.915Z,25.15
2022-11-28T07:31:42.669Z,25.35
2022-11-28T07:34:10.151Z,24.95
2022-11-28T07:36:37.612Z,21.67
2022-11-28T07:39:05.710Z,23.52
2022-11-28T07:41:32.064Z,22.42
2022-11-28T07:44:00.180Z,29.48
2022-11-28T07:46:27.825Z,27.83
2022-11-28T07:48:54.327Z,25.80
2022-11-28T07:51:23.428Z,34.47
2022-11-28T07:53:49.883Z,34.42
2022-11-28T07:56:18.308Z,28.65
2022-11-28T07:58:45.929Z,28.35
2022-11-28T08:01:22.250Z,33.97
2022-11-28T08:03:49.182Z,28.05
2022-11-28T08:06:17.141Z,26.13
2022-11-28T08:08:44.028Z,24.35
2022-11-28T08:11:10.593Z,26.10
2022-11-28T08:13:38.702Z,28.83
2022-11-28T08:16:06.923Z,24.27
2022-11-28T08:18:34.884Z,28.95
2022-11-28T08:21:12.734Z,23.83
2022-11-28T08:23:40.000Z,27.08
2022-11-28T08:26:08.791Z,33.67
2022-11-28T08:28:35.498Z,28.75
2022-11-28T08:31:11.921Z,27.35
2022-11-28T08:33:38.724Z,27.27
2022-11-28T08:36:09.340Z,28.83
2022-11-28T08:38:37.128Z,29.73
2022-11-28T08:41:08.383Z,27.15
2022-11-28T08:43:36.739Z,28.95
2022-11-28T08:46:04.379Z,34.80
2022-11-28T08:48:31.307Z,30.80
2022-11-28T08:50:57.667Z,32.20
2022-11-28T08:53:24.172Z,32.47
2022-11-28T08:55:50.527Z,31.25
2022-11-28T08:58:16.995Z,30.58
2022-11-28T09:00:43.556Z,33.45
2022-11-28T09:03:15.233Z,32.10
2022-11-28T09:05:42.887Z,36.55
2022-11-28T09:08:11.785Z,43.72
2022-11-28T09:10:39.443Z,32.10
2022-11-28T09:13:06.341Z,37.63
2022-11-28T09:15:33.402Z,36.85
2022-11-28T09:17:59.919Z,37.83
2022-11-28T09:20:26.471Z,42.50
2022-11-28T09:22:52.961Z,35.92
2022-11-28T09:25:19.351Z,38.63
2022-11-28T09:27:45.756Z,39.40
2022-11-28T09:30:12.651Z,43.08
2022-11-28T09:32:39.010Z,47.95
2022-11-28T09:35:05.799Z,42.25
2022-11-28T09:37:32.304Z,51.63
2022-11-28T09:40:12.560Z,43.72
2022-11-28T09:42:43.640Z,53.88
2022-11-28T09:45:19.042Z,36.92
2022-11-28T09:47:57.915Z,41.38
2022-11-28T09:50:32.548Z,43.05
2022-11-28T09:53:14.154Z,45.40
2022-11-28T09:55:56.254Z,50.03
2022-11-28T09:58:43.312Z,42.35
2022-11-28T10:01:41.507Z,43.88
2022-11-28T10:04:35.837Z,42.30
2022-11-28T10:07:18.392Z,49.15
2022-11-28T10:10:03.934Z,43.30
2022-11-28T10:12:57.289Z,51.35
2022-11-28T10:15:50.499Z,53.90
2022-11-28T10:18:37.293Z,48.70
2022-11-28T10:21:22.985Z,46.30
2022-11-28T10:23:50.762Z,82.25
2022-11-28T10:26:22.648Z,49.10
2022-11-28T10:28:52.104Z,52.08
2022-11-28T10:31:36.946Z,56.20
2022-11-28T10:34:03.207Z,63.65
2022-11-28T10:37:05.082Z,61.75
2022-11-28T10:39:31.718Z,55.75
2022-11-28T10:42:28.424Z,83.22
2022-11-28T10:44:59.606Z,53.97
2022-11-28T10:47:55.422Z,55.72
2022-11-28T10:50:39.270Z,61.88
2022-11-28T10:53:39.806Z,66.57
2022-11-28T10:56:27.893Z,59.42
2022-11-28T10:59:01.118Z,50.80
2022-11-28T11:01:31.773Z,66.03
2022-11-28T11:03:58.249Z,54.42
2022-11-28T11:06:36.105Z,75.18
2022-11-28T11:09:09.321Z,88.13
2022-11-28T11:11:40.720Z,63.97
2022-11-28T11:14:09.835Z,64.38
2022-11-28T11:16:48.701Z,49.70
2022-11-28T11:19:27.142Z,55.42
2022-11-28T11:22:22.441Z,62.72
2022-11-28T11:25:05.791Z,63.15
2022-11-28T11:27:32.578Z,52.58
2022-11-28T11:29:59.122Z,54.47
2022-11-28T11:32:29.532Z,56.85
2022-11-28T11:34:57.381Z,65.38
2022-11-28T11:37:36.364Z,56.42
2022-11-28T11:40:27.182Z,55.13
2022-11-28T11:42:59.341Z,55.10
2022-11-28T11:45:30.359Z,57.13
2022-11-28T11:47:57.605Z,53.47
2022-11-28T11:50:26.399Z,58.67
2022-11-28T11:53:12.764Z,63.22
2022-11-28T11:55:49.308Z,82.80
2022-11-28T11:58:28.811Z,57.95
2022-11-28T12:00:57.695Z,64.47
2022-11-28T12:03:36.814Z,70.28
2022-11-28T12:06:29.372Z,59.78
2022-11-28T12:09:25.003Z,63.92
2022-11-28T12:12:06.512Z,59.25
2022-11-28T12:14:34.677Z,65.60
2022-11-28T12:17:47.907Z,71.68
2022-11-28T12:20:39.972Z,65.85
2022-11-28T12:23:40.734Z,78.93
2022-11-28T12:26:39.502Z,67.57
2022-11-28T12:29:30.942Z,59.72
2022-11-28T12:32:30.810Z,60.45
2022-11-28T12:35:27.735Z,62.13
2022-11-28T12:38:19.056Z,52.78
2022-11-28T12:40:45.420Z,51.92
2022-11-28T12:43:38.528Z,48.47
2022-11-28T12:46:14.086Z,45.95
2022-11-28T12:49:03.383Z,48.22
2022-11-28T12:51:54.025Z,45.88
2022-11-28T12:54:32.115Z,51.08
2022-11-28T12:57:29.887Z,45.58
2022-11-28T13:00:09.463Z,50.88
2022-11-28T13:02:54.953Z,44.95
2022-11-28T13:05:40.194Z,50.70
2022-11-28T13:08:22.609Z,47.45
2022-11-28T13:11:26.626Z,45.63
2022-11-28T13:13:59.184Z,48.72
2022-11-28T13:16:47.563Z,60.13
2022-11-28T13:21:58.566Z,52.97
2022-11-28T13:24:31.632Z,56.13
2022-11-28T13:27:09.474Z,50.95
2022-11-28T13:29:42.011Z,49.08
2022-11-28T13:32:44.829Z,55.38
2022-11-28T13:35:16.319Z,52.53
2022-11-28T13:40:42.882Z,54.30
2022-11-28T13:43:25.539Z,53.85
2022-11-28T13:45:52.698Z,52.75
2022-11-28T13:49:05.956Z,49.85
2022-11-28T13:51:30.639Z,50.28
2022-11-28T13:54:22.771Z,48.70
2022-11-28T13:57:05.512Z,49.85
2022-11-28T13:59:32.610Z,56.75
2022-11-28T14:02:04.281Z,49.95
2022-11-28T14:04:32.137Z,51.78
2022-11-28T14:07:04.322Z,56.47
2022-11-28T14:09:52.632Z,46.08
2022-11-28T14:12:31.599Z,52.20
2022-11-28T14:15:26.209Z,48.22
2022-11-28T14:18:54.453Z,49.58
2022-11-28T14:21:12.040Z,56.60
2022-11-28T14:23:46.121Z,53.97
2022-11-28T14:26:27.931Z,54.35
2022-11-28T14:28:54.502Z,57.20
2022-11-28T14:31:32.888Z,57.50
2022-11-28T14:34:47.904Z,54.92
2022-11-28T14:40:59.734Z,53.50
2022-11-28T14:43:37.805Z,56.47
2022-11-28T14:46:24.573Z,67.90
2022-11-28T14:49:00.445Z,50.95
2022-11-28T14:51:45.683Z,50.97
2022-11-28T14:54:35.433Z,50.72
2022-11-28T14:57:02.090Z,59.42
2022-11-28T14:59:34.446Z,50.83
2022-11-28T15:02:13.187Z,57.28
2022-11-28T15:05:03.041Z,62.10
2022-11-28T15:07:54.692Z,50.05
2022-11-28T15:10:45.760Z,47.90
2022-11-28T15:13:24.338Z,55.75
2022-11-28T15:15:52.245Z,50.55
2022-11-28T15:18:20.360Z,52.88
2022-11-28T15:20:50.763Z,51.65
2022-11-28T15:23:31.282Z,59.45
2022-11-28T15:25:59.036Z,70.03
2022-11-28T15:28:28.552Z,53.80
2022-11-28T15:30:56.978Z,62.17
2022-11-28T15:33:25.459Z,56.42
2022-11-28T15:35:58.259Z,60.92
2022-11-28T15:38:25.805Z,55.97
2022-11-28T15:40:54.431Z,70.43
2022-11-28T15:43:21.040Z,59.70
2022-11-28T15:45:52.365Z,62.45
2022-11-28T15:48:39.750Z,72.55
2022-11-28T15:51:07.408Z,59.90
2022-11-28T15:53:34.186Z,57.25
2022-11-28T15:56:12.732Z,59.45
2022-11-28T15:58:42.560Z,74.35
2022-11-28T16:03:58.960Z,50.67
2022-11-28T16:06:28.936Z,61.22
2022-11-28T16:11:28.142Z,58.00
2022-11-28T16:13:56.250Z,60.47
2022-11-28T16:16:26.040Z,74.07
2022-11-28T16:18:58.059Z,58.28
2022-11-28T16:21:42.611Z,60.47
2022-11-28T16:24:31.205Z,52.20
2022-11-28T16:27:04.176Z,61.28
2022-11-28T16:29:34.856Z,51.60
2022-11-28T16:32:22.923Z,64.13
2022-11-28T16:34:51.188Z,66.47
2022-11-28T16:37:26.675Z,50.95
2022-11-28T16:40:23.049Z,63.72
2022-11-28T16:42:53.606Z,66.28
2022-11-28T16:45:29.532Z,65.28
2022-11-28T16:48:08.964Z,66.47
2022-11-28T16:50:36.396Z,70.25
2022-11-28T16:53:04.122Z,77.78
2022-11-28T16:55:30.395Z,67.65
2022-11-28T16:58:07.087Z,55.67
2022-11-28T17:00:34.908Z,59.15
2022-11-28T17:03:01.661Z,74.20
2022-11-28T17:05:28.134Z,75.05
2022-11-28T17:07:54.818Z,72.35
2022-11-28T17:10:21.342Z,66.90
2022-11-28T17:12:47.895Z,69.55
2022-11-28T17:15:18.595Z,71.22
2022-11-28T17:17:45.019Z,71.07
2022-11-28T17:20:12.499Z,85.53
2022-11-28T17:22:44.056Z,68.88
2022-11-28T17:25:16.100Z,81.18
2022-11-28T17:27:42.797Z,114.70
2022-11-28T17:30:19.486Z,109.47
2022-11-28T17:32:47.913Z,92.40
2022-11-28T17:35:17.374Z,85.43
2022-11-28T17:37:43.866Z,92.63
2022-11-28T17:40:28.923Z,69.10
2022-11-28T17:42:55.374Z,69.18
2022-11-28T17:45:22.167Z,67.95
2022-11-28T17:47:48.659Z,73.55
2022-11-28T17:50:15.073Z,70.88
2022-11-28T17:52:41.574Z,75.00
2022-11-28T17:55:08.346Z,77.57
2022-11-28T17:57:34.868Z,67.03
2022-11-28T18:00:01.301Z,86.45
2022-11-28T18:02:27.797Z,63.28
2022-11-28T18:04:54.246Z,81.18
2022-11-28T18:07:20.714Z,69.72
2022-11-28T18:09:47.819Z,65.68
2022-11-28T18:12:14.224Z,65.65
2022-11-28T18:14:40.596Z,55.83
2022-11-28T18:17:06.991Z,68.47
2022-11-28T18:19:33.398Z,69.05
2022-11-28T18:21:59.769Z,57.03
2022-11-28T18:24:26.175Z,86.00
2022-11-28T18:26:52.580Z,68.40
2022-11-28T18:29:18.988Z,63.92
2022-11-28T18:31:45.559Z,58.28
2022-11-28T18:34:11.999Z,72.35
2022-11-28T18:36:39.742Z,81.80
2022-11-28T18:39:09.302Z,83.18
2022-11-28T18:41:35.723Z,77.60
2022-11-28T18:44:04.714Z,66.95
2022-11-28T18:46:31.798Z,72.25
2022-11-28T18:48:58.520Z,73.30
2022-11-28T18:51:34.752Z,86.18
2022-11-28T18:56:31.197Z,76.38
2022-11-28T18:58:58.079Z,66.85
2022-11-28T19:01:28.488Z,69.35
2022-11-28T19:03:57.483Z,101.28
2022-11-28T19:06:24.328Z,72.10
2022-11-28T19:08:56.436Z,87.95
2022-11-28T19:11:23.299Z,83.97
2022-11-28T19:13:51.599Z,70.40
2022-11-28T19:16:23.758Z,70.28
2022-11-28T19:18:50.447Z,90.95
2022-11-28T19:21:19.751Z,96.68
2022-11-28T19:23:47.146Z,80.20
2022-11-28T19:26:15.147Z,83.97
2022-11-28T19:28:41.866Z,86.63
2022-11-28T19:31:12.547Z,72.10
2022-11-28T19:33:39.278Z,71.82
2022-11-28T19:36:07.851Z,67.18
2022-11-28T19:38:35.295Z,81.40
2022-11-28T19:41:21.591Z,107.28
2022-11-28T19:43:48.700Z,73.57
2022-11-28T19:46:15.526Z,86.43
2022-11-28T19:48:42.425Z,96.60
2022-11-28T19:51:10.307Z,75.20
2022-11-28T19:53:38.098Z,94.25
2022-11-28T19:56:12.112Z,84.57
2022-11-28T19:58:38.762Z,74.05
2022-11-28T20:01:09.508Z,81.53
2022-11-28T20:03:37.360Z,77.97
2022-11-28T20:06:11.981Z,92.57
2022-11-28T20:08:38.838Z,106.65
2022-11-28T20:11:13.282Z,89.80
2022-11-28T20:13:41.211Z,90.07
2022-11-28T20:16:08.849Z,93.35
2022-11-28T20:18:40.905Z,104.95
2022-11-28T20:21:09.810Z,91.68
2022-11-28T20:23:44.345Z,113.55
2022-11-28T20:26:12.199Z,69.80
2022-11-28T20:28:39.650Z,138.18
2022-11-28T20:31:07.169Z,81.38
2022-11-28T20:33:33.750Z,81.75
2022-11-28T20:36:08.534Z,64.63
2022-11-28T20:38:35.333Z,82.22
2022-11-28T20:41:03.492Z,59.70
2022-11-28T20:43:31.247Z,51.22
2022-11-28T20:46:02.578Z,65.60
2022-11-28T20:48:29.002Z,57.45
2022-11-28T20:50:55.496Z,76.00
2022-11-28T20:53:26.552Z,194.50
2022-11-28T20:56:01.247Z,166.20
2022-11-28T20:58:27.658Z,179.80
2022-11-28T21:00:54.401Z,158.98
2022-11-28T21:03:21.130Z,92.78
2022-11-28T21:05:47.493Z,87.07
2022-11-28T21:08:13.855Z,145.95
2022-11-28T21:10:40.228Z,155.88
2022-11-28T21:13:07.167Z,82.47
2022-11-28T21:15:33.528Z,86.15
2022-11-28T21:18:00.002Z,160.68
2022-11-28T21:20:26.416Z,139.20
2022-11-28T21:22:52.820Z,161.00
2022-11-28T21:25:19.237Z,144.20
2022-11-28T21:27:46.061Z,79.65
2022-11-28T21:30:12.467Z,149.48
2022-11-28T21:32:38.814Z,96.70
2022-11-28T21:35:05.633Z,89.13
2022-11-28T21:37:32.304Z,118.30
2022-11-28T21:39:58.766Z,82.90
2022-11-28T21:42:25.118Z,205.05
2022-11-28T21:44:51.490Z,80.90
2022-11-28T21:47:17.875Z,83.55
2022-11-28T21:49:44.574Z,194.63
2022-11-28T21:52:12.110Z,100.55
2022-11-28T21:54:38.463Z,113.68
2022-11-28T21:57:04.823Z,178.05
2022-11-28T21:59:31.696Z,129.82
2022-11-28T22:01:58.168Z,141.88
2022-11-28T22:04:24.688Z,153.40
2022-11-28T22:06:51.222Z,139.80
2022-11-28T22:09:17.586Z,111.88
2022-11-28T22:11:43.986Z,74.90
2022-11-28T22:14:10.952Z,152.77
2022-11-28T22:16:37.351Z,88.30
2022-11-28T22:19:04.079Z,255.15
2022-11-28T22:24:17.539Z,158.55
2022-11-28T22:26:44.053Z,166.15
2022-11-28T22:29:11.062Z,262.90
2022-11-28T22:31:37.644Z,216.18
2022-11-28T22:34:04.079Z,156.27
2022-11-28T22:36:32.031Z,96.35
2022-11-28T22:38:58.907Z,89.10
2022-11-28T22:41:29.236Z,195.15
2022-11-28T22:43:59.305Z,126.63
2022-11-28T22:46:25.940Z,103.15
2022-11-28T22:48:52.297Z,254.35
2022-11-28T22:51:22.012Z,119.53
2022-11-28T22:53:52.694Z,110.93
2022-11-28T22:56:19.094Z,173.23
2022-11-28T22:58:45.615Z,106.07
2022-11-28T23:01:17.760Z,95.07
2022-11-28T23:03:45.302Z,189.45
2022-11-28T23:06:14.108Z,224.52
2022-11-28T23:08:40.598Z,117.32
2022-11-28T23:11:09.200Z,107.30
2022-11-28T23:13:36.653Z,93.72
2022-11-28T23:16:19.675Z,192.27
2022-11-28T23:18:48.160Z,308.23
2022-11-28T23:21:15.301Z,103.07
2022-11-28T23:23:41.922Z,328.98
2022-11-28T23:26:22.892Z,133.10
2022-11-28T23:28:49.484Z,94.10
2022-11-28T23:31:19.012Z,110.35
2022-11-28T23:33:45.725Z,172.57
2022-11-28T23:36:17.507Z,153.18
2022-11-28T23:38:45.085Z,103.22
2022-11-28T23:41:12.138Z,173.38
2022-11-28T23:43:38.830Z,244.30
2022-11-28T23:46:06.171Z,194.02
2022-11-28T23:48:32.778Z,102.05
2022-11-28T23:50:59.127Z,80.60
2022-11-28T23:53:25.783Z,98.55
2022-11-28T23:55:52.348Z,87.97
2022-11-28T23:58:19.265Z,98.55
